Time;durP1;ratioP1;P1;durP2;ratioP2;P2;SDS_P1;SDS_P2;PMS_P1;PMS_P2;Temp;Humidity;BMP_temperature;BMP_pressure;BME280_temperature;BME280_humidity;BME280_pressure;Samples;Min_cycle;Max_cycle;Signal;HPM_P1;HPM_P2
2022/03/21 00:00:42;;;;;;;14.77;11.87;;;;;;;;;;5002328;28;20192;-58
2022/03/21 00:03:09;;;;;;;14.53;11.87;;;;;;;;;;4999619;28;20216;-58
2022/03/21 00:05:35;;;;;;;17.13;12.67;;;;;;;;;;5001569;28;20695;-58
2022/03/21 00:08:02;;;;;;;15.70;12.13;;;;;;;;;;4994231;28;20271;-58
2022/03/21 00:10:28;;;;;;;14.67;12.03;;;;;;;;;;4989930;28;21485;-58
2022/03/21 00:12:54;;;;;;;16.20;13.20;;;;;;;;;;4987072;28;20334;-58
2022/03/21 00:15:20;;;;;;;17.73;13.00;;;;;;;;;;4991869;28;20567;-58
2022/03/21 00:17:46;;;;;;;16.77;12.20;;;;;;;;;;4993951;28;20209;-58
2022/03/21 00:20:12;;;;;;;15.57;12.33;;;;;;;;;;4999279;28;20200;-58
2022/03/21 00:22:38;;;;;;;15.90;13.07;;;;;;;;;;5011586;28;20220;-58
2022/03/21 00:25:05;;;;;;;16.07;12.90;;;;;;;;;;5016352;28;20343;-58
2022/03/21 00:27:31;;;;;;;18.80;12.90;;;;;;;;;;5007169;28;20209;-58
2022/03/21 00:29:57;;;;;;;15.93;12.90;;;;;;;;;;5004551;28;20572;-58
2022/03/21 00:32:23;;;;;;;16.23;13.33;;;;;;;;;;4998640;28;20292;-59
2022/03/21 00:34:49;;;;;;;16.93;13.70;;;;;;;;;;5002485;28;20314;-58
2022/03/21 00:37:15;;;;;;;16.63;12.97;;;;;;;;;;5008333;28;20685;-58
2022/03/21 00:39:41;;;;;;;19.10;13.83;;;;;;;;;;4999393;28;20594;-58
2022/03/21 00:42:10;;;;;;;16.37;12.90;;;;;;;;;;4988045;28;20200;-58
2022/03/21 00:44:36;;;;;;;17.30;14.03;;;;;;;;;;4995337;28;20666;-58
2022/03/21 00:47:02;;;;;;;15.93;13.40;;;;;;;;;;4997714;28;20240;-58
2022/03/21 00:49:27;;;;;;;17.77;13.80;;;;;;;;;;4999675;28;20977;-58
2022/03/21 00:51:53;;;;;;;19.23;13.67;;;;;;;;;;4998105;28;20193;-58
2022/03/21 00:54:19;;;;;;;16.90;13.37;;;;;;;;;;5002408;28;20196;-58
2022/03/21 00:56:45;;;;;;;18.63;14.23;;;;;;;;;;4999752;28;20213;-58
2022/03/21 00:59:11;;;;;;;17.87;14.00;;;;;;;;;;5001459;28;20197;-58
2022/03/21 01:01:37;;;;;;;16.20;12.60;;;;;;;;;;5004285;28;20208;-58
2022/03/21 01:04:03;;;;;;;16.70;13.50;;;;;;;;;;5009661;28;20251;-58
2022/03/21 01:06:29;;;;;;;19.07;13.93;;;;;;;;;;5003137;28;20200;-58
2022/03/21 01:08:55;;;;;;;17.07;13.23;;;;;;;;;;5004409;28;20512;-58
2022/03/21 01:11:24;;;;;;;19.43;13.77;;;;;;;;;;4995588;28;20579;-58
2022/03/21 01:13:51;;;;;;;16.30;13.17;;;;;;;;;;4994891;28;22036;-58
2022/03/21 01:16:17;;;;;;;15.83;13.83;;;;;;;;;;4991738;28;20197;-59
2022/03/21 01:18:46;;;;;;;19.43;13.70;;;;;;;;;;4993794;28;20645;-58
2022/03/21 01:21:15;;;;;;;16.60;14.47;;;;;;;;;;4997822;28;20609;-58
2022/03/21 01:23:41;;;;;;;16.30;13.87;;;;;;;;;;4992734;28;20688;-58
2022/03/21 01:26:06;;;;;;;18.03;14.00;;;;;;;;;;4992540;28;20249;-58
2022/03/21 01:28:32;;;;;;;17.60;14.43;;;;;;;;;;4998720;28;20223;-58
2022/03/21 01:30:58;;;;;;;20.93;14.47;;;;;;;;;;4994276;28;20220;-58
2022/03/21 01:33:24;;;;;;;20.47;15.10;;;;;;;;;;5001887;28;20200;-58
2022/03/21 01:35:50;;;;;;;18.07;14.23;;;;;;;;;;5003899;28;20212;-58
2022/03/21 01:38:16;;;;;;;16.27;13.90;;;;;;;;;;4995774;28;20196;-58
2022/03/21 01:40:42;;;;;;;16.47;14.10;;;;;;;;;;4997279;28;20186;-58
2022/03/21 01:43:11;;;;;;;20.73;13.90;;;;;;;;;;4986970;28;20615;-58
2022/03/21 01:45:38;;;;;;;17.53;13.77;;;;;;;;;;4995752;28;20289;-58
2022/03/21 01:48:04;;;;;;;16.53;13.43;;;;;;;;;;4996881;28;20192;-58
2022/03/21 01:50:30;;;;;;;18.03;14.67;;;;;;;;;;5000248;28;20645;-59
2022/03/21 01:55:43;;;;;;;18.63;13.83;;;;;;;;;;5001162;28;20199;-58
2022/03/21 01:55:45;;;;;;;16.83;13.67;;;;;;;;;;4997400;28;20189;-58
2022/03/21 01:58:13;;;;;;;17.10;14.30;;;;;;;;;;4999155;28;20197;-58
2022/03/21 02:00:39;;;;;;;16.93;13.47;;;;;;;;;;5004413;28;20553;-58
2022/03/21 02:03:05;;;;;;;15.67;13.37;;;;;;;;;;5002183;28;20538;-58
2022/03/21 02:05:31;;;;;;;18.80;14.47;;;;;;;;;;4998873;28;20224;-58
2022/03/21 02:07:57;;;;;;;18.27;13.77;;;;;;;;;;4995827;28;20193;-58
2022/03/21 02:10:23;;;;;;;17.17;14.60;;;;;;;;;;4999212;28;20663;-58
2022/03/21 02:12:49;;;;;;;18.17;14.10;;;;;;;;;;5000957;28;20208;-58
2022/03/21 02:15:15;;;;;;;16.57;13.97;;;;;;;;;;5002890;28;20224;-59
2022/03/21 02:17:41;;;;;;;16.80;14.20;;;;;;;;;;4999803;28;20614;-59
2022/03/21 02:20:07;;;;;;;16.20;13.53;;;;;;;;;;4999352;28;20970;-58
2022/03/21 02:22:34;;;;;;;19.63;14.40;;;;;;;;;;4992517;28;20219;-59
2022/03/21 02:25:19;;;;;;;17.43;13.90;;;;;;;;;;5000833;28;20249;-59
2022/03/21 02:27:46;;;;;;;19.43;14.70;;;;;;;;;;4992263;28;20243;-58
2022/03/21 02:30:12;;;;;;;16.67;13.63;;;;;;;;;;5001263;28;20243;-58
2022/03/21 02:32:38;;;;;;;18.10;13.40;;;;;;;;;;5006442;28;20193;-58
2022/03/21 02:35:04;;;;;;;16.00;13.77;;;;;;;;;;5000744;28;20189;-58
2022/03/21 02:37:30;;;;;;;18.23;14.47;;;;;;;;;;5002934;28;20647;-57
2022/03/21 02:39:56;;;;;;;18.93;14.30;;;;;;;;;;4997277;28;20185;-58
2022/03/21 02:42:22;;;;;;;16.07;13.67;;;;;;;;;;4995981;28;20233;-58
2022/03/21 02:44:48;;;;;;;18.80;14.20;;;;;;;;;;4997650;28;20197;-58
2022/03/21 02:47:14;;;;;;;15.90;14.20;;;;;;;;;;4996548;28;20548;-59
2022/03/21 02:49:40;;;;;;;18.83;14.47;;;;;;;;;;5000749;28;20376;-58
2022/03/21 02:52:06;;;;;;;18.13;14.10;;;;;;;;;;5001732;28;20197;-59
2022/03/21 02:54:32;;;;;;;16.77;13.83;;;;;;;;;;4998763;28;20200;-58
2022/03/21 02:56:58;;;;;;;17.97;13.93;;;;;;;;;;4990040;28;20622;-59
2022/03/21 02:59:25;;;;;;;17.33;14.50;;;;;;;;;;4992013;28;20230;-59
2022/03/21 03:01:53;;;;;;;20.00;14.30;;;;;;;;;;4996618;28;21529;-59
2022/03/21 03:04:20;;;;;;;19.17;14.80;;;;;;;;;;4995560;28;20323;-59
2022/03/21 03:06:46;;;;;;;19.77;14.47;;;;;;;;;;4989681;28;21513;-58
2022/03/21 03:09:12;;;;;;;18.77;14.37;;;;;;;;;;4989086;28;20194;-58
2022/03/21 03:11:39;;;;;;;18.47;14.07;;;;;;;;;;4983913;28;20226;-59
2022/03/21 03:14:05;;;;;;;19.17;14.27;;;;;;;;;;4985750;28;20196;-59
2022/03/21 03:16:31;;;;;;;22.37;15.40;;;;;;;;;;4985950;28;20196;-58
2022/03/21 03:18:57;;;;;;;18.83;14.23;;;;;;;;;;4988681;28;20249;-58
2022/03/21 03:21:23;;;;;;;17.67;14.40;;;;;;;;;;4991742;28;20288;-59
2022/03/21 03:23:50;;;;;;;18.17;14.73;;;;;;;;;;4994831;28;20330;-58
2022/03/21 03:26:16;;;;;;;18.70;14.83;;;;;;;;;;4994356;28;20287;-58
2022/03/21 03:28:42;;;;;;;18.07;14.60;;;;;;;;;;4991180;28;20935;-59
2022/03/21 03:31:08;;;;;;;19.23;14.80;;;;;;;;;;4985714;28;20364;-59
2022/03/21 03:33:34;;;;;;;16.30;13.80;;;;;;;;;;4987956;28;20258;-58
2022/03/21 03:36:00;;;;;;;18.07;14.77;;;;;;;;;;4996019;28;20212;-59
2022/03/21 03:38:26;;;;;;;18.07;14.83;;;;;;;;;;4998945;28;20652;-59
2022/03/21 03:40:54;;;;;;;20.77;14.93;;;;;;;;;;4991443;28;21100;-59
2022/03/21 03:43:20;;;;;;;17.00;14.63;;;;;;;;;;4991089;28;20219;-59
2022/03/21 03:45:49;;;;;;;17.20;14.30;;;;;;;;;;4991045;28;20703;-59
2022/03/21 03:48:15;;;;;;;18.83;15.50;;;;;;;;;;4997142;28;20192;-59
2022/03/21 03:50:41;;;;;;;19.70;15.03;;;;;;;;;;5001888;28;20772;-60
2022/03/21 03:53:07;;;;;;;18.90;14.97;;;;;;;;;;4996246;28;20277;-59
2022/03/21 03:55:33;;;;;;;19.47;16.03;;;;;;;;;;4995518;28;20200;-58
2022/03/21 03:57:59;;;;;;;20.67;15.27;;;;;;;;;;4987576;28;20200;-59
2022/03/21 04:00:25;;;;;;;19.70;15.67;;;;;;;;;;4992063;28;20197;-59
2022/03/21 04:05:36;;;;;;;16.17;14.23;;;;;;;;;;4994763;28;20223;-58
2022/03/21 04:08:02;;;;;;;19.07;14.43;;;;;;;;;;4988447;28;20608;-58
2022/03/21 04:10:28;;;;;;;18.50;15.73;;;;;;;;;;4983678;28;20196;-59
2022/03/21 04:12:54;;;;;;;18.83;14.40;;;;;;;;;;4985323;28;20750;-59
2022/03/21 04:15:20;;;;;;;20.63;15.47;;;;;;;;;;4987898;28;20204;-59
2022/03/21 04:17:47;;;;;;;19.00;15.10;;;;;;;;;;4990651;28;20244;-58
2022/03/21 04:20:13;;;;;;;18.67;14.67;;;;;;;;;;4995341;28;20208;-59
2022/03/21 04:22:39;;;;;;;18.67;15.50;;;;;;;;;;4990804;28;20684;-59
2022/03/21 04:25:06;;;;;;;16.47;14.67;;;;;;;;;;4996326;28;20246;-58
2022/03/21 04:27:32;;;;;;;18.50;14.50;;;;;;;;;;4981494;28;20813;-58
2022/03/21 04:29:58;;;;;;;20.47;15.33;;;;;;;;;;4984918;28;20553;-59
2022/03/21 04:32:24;;;;;;;17.00;14.67;;;;;;;;;;4990998;28;20190;-59
2022/03/21 04:34:50;;;;;;;18.00;15.23;;;;;;;;;;5001461;28;20429;-58
2022/03/21 04:37:16;;;;;;;17.60;14.50;;;;;;;;;;5003624;28;20224;-59
2022/03/21 04:39:42;;;;;;;18.73;14.87;;;;;;;;;;4996759;28;20197;-58
2022/03/21 04:42:08;;;;;;;18.87;14.70;;;;;;;;;;4993223;28;20807;-58
2022/03/21 04:44:34;;;;;;;16.60;14.23;;;;;;;;;;4997968;28;20207;-58
2022/03/21 04:47:00;;;;;;;17.27;14.57;;;;;;;;;;4997987;28;20190;-58
2022/03/21 04:49:26;;;;;;;17.70;14.50;;;;;;;;;;5001603;28;20203;-58
2022/03/21 04:51:52;;;;;;;17.33;14.43;;;;;;;;;;5002918;28;20204;-58
2022/03/21 04:54:18;;;;;;;16.87;13.97;;;;;;;;;;5012830;28;20220;-58
2022/03/21 04:56:44;;;;;;;17.90;14.60;;;;;;;;;;5010190;28;20201;-59
2022/03/21 04:59:10;;;;;;;18.90;14.20;;;;;;;;;;4988798;28;20204;-59
2022/03/21 05:01:39;;;;;;;18.87;15.03;;;;;;;;;;4990089;28;20200;-58
2022/03/21 05:04:05;;;;;;;20.27;15.27;;;;;;;;;;4991391;28;20209;-58
2022/03/21 05:06:31;;;;;;;20.47;14.50;;;;;;;;;;4995072;28;20635;-59
2022/03/21 05:08:59;;;;;;;17.83;13.97;;;;;;;;;;4990269;28;20202;-59
2022/03/21 05:11:25;;;;;;;18.40;14.83;;;;;;;;;;4996742;28;20658;-58
2022/03/21 05:13:51;;;;;;;19.73;14.60;;;;;;;;;;4999930;28;20215;-58
2022/03/21 05:16:16;;;;;;;17.83;14.20;;;;;;;;;;4999718;28;20200;-59
2022/03/21 05:18:44;;;;;;;16.53;14.03;;;;;;;;;;5003494;28;20201;-58
2022/03/21 05:21:10;;;;;;;18.13;14.30;;;;;;;;;;5002788;28;20196;-58
2022/03/21 05:31:50;;;;;;;16.40;14.23;;;;;;;;;;4997803;28;20205;-59
2022/03/21 05:37:00;;;;;;;19.47;13.73;;;;;;;;;;4993884;28;20195;-58
2022/03/21 05:39:26;;;;;;;17.10;14.50;;;;;;;;;;4992400;28;20196;-59
2022/03/21 05:41:52;;;;;;;17.03;14.20;;;;;;;;;;5002975;28;20202;-59
2022/03/21 05:44:18;;;;;;;16.23;13.30;;;;;;;;;;4999132;28;20574;-58
2022/03/21 05:46:44;;;;;;;16.77;13.83;;;;;;;;;;5004611;28;20196;-58
2022/03/21 05:49:10;;;;;;;16.13;14.30;;;;;;;;;;5010797;28;20181;-58
2022/03/21 05:51:37;;;;;;;15.17;12.97;;;;;;;;;;5000802;28;20204;-58
2022/03/21 05:54:05;;;;;;;16.10;13.13;;;;;;;;;;5000610;28;20225;-58
2022/03/21 05:56:31;;;;;;;18.83;14.53;;;;;;;;;;5007014;28;20189;-59
2022/03/21 05:59:00;;;;;;;17.00;13.30;;;;;;;;;;5000291;28;20198;-58
2022/03/21 06:01:26;;;;;;;17.80;14.77;;;;;;;;;;4997178;28;20205;-61
2022/03/21 06:03:52;;;;;;;19.00;12.60;;;;;;;;;;5004769;28;20220;-58
2022/03/21 06:06:18;;;;;;;18.03;12.80;;;;;;;;;;5003016;28;20209;-57
2022/03/21 06:08:44;;;;;;;17.63;12.97;;;;;;;;;;5005385;28;20186;-57
2022/03/21 06:11:12;;;;;;;15.87;13.03;;;;;;;;;;4990795;28;20204;-59
2022/03/21 06:13:39;;;;;;;16.70;12.67;;;;;;;;;;4996612;28;20196;-59
2022/03/21 06:16:06;;;;;;;20.43;13.47;;;;;;;;;;5002226;28;20272;-56
2022/03/21 06:18:32;;;;;;;20.40;15.03;;;;;;;;;;5003434;28;20208;-60
2022/03/21 06:20:59;;;;;;;19.27;12.10;;;;;;;;;;5006257;28;20643;-56
2022/03/21 06:23:25;;;;;;;19.83;12.10;;;;;;;;;;5008807;28;20218;-56
2022/03/21 06:25:53;;;;;;;24.70;12.80;;;;;;;;;;5008812;28;21150;-56
2022/03/21 06:28:19;;;;;;;19.97;13.77;;;;;;;;;;5012977;28;20185;-56
2022/03/21 06:30:45;;;;;;;18.67;13.00;;;;;;;;;;5008062;28;20734;-56
2022/03/21 06:33:11;;;;;;;20.30;13.30;;;;;;;;;;5007473;28;20280;-56
2022/03/21 06:35:37;;;;;;;20.23;12.70;;;;;;;;;;5007012;28;20232;-56
2022/03/21 06:38:03;;;;;;;17.83;13.20;;;;;;;;;;5008417;28;20233;-56
2022/03/21 06:40:30;;;;;;;21.63;12.83;;;;;;;;;;5006849;28;20246;-56
2022/03/21 06:42:56;;;;;;;19.87;13.20;;;;;;;;;;5005000;28;20649;-56
2022/03/21 06:45:23;;;;;;;20.30;12.73;;;;;;;;;;5004173;28;20200;-57
2022/03/21 06:47:49;;;;;;;20.13;12.30;;;;;;;;;;5001666;28;21487;-56
2022/03/21 06:50:14;;;;;;;16.33;13.30;;;;;;;;;;5010504;28;20181;-56
2022/03/21 06:52:40;;;;;;;17.17;12.87;;;;;;;;;;5008122;28;20207;-56
2022/03/21 06:55:07;;;;;;;17.57;13.17;;;;;;;;;;4999012;28;20696;-56
2022/03/21 06:57:33;;;;;;;16.37;13.20;;;;;;;;;;5003377;28;20719;-56
2022/03/21 07:00:01;;;;;;;21.70;14.13;;;;;;;;;;5006983;28;20196;-56
2022/03/21 07:02:28;;;;;;;17.33;12.90;;;;;;;;;;5007433;28;20254;-56
2022/03/21 07:04:55;;;;;;;19.57;13.30;;;;;;;;;;5013776;28;20619;-56
2022/03/21 07:07:21;;;;;;;18.73;13.77;;;;;;;;;;5012303;28;20279;-55
2022/03/21 07:09:47;;;;;;;18.23;13.23;;;;;;;;;;5004570;28;20886;-56
2022/03/21 07:12:13;;;;;;;16.37;13.63;;;;;;;;;;5000886;28;20279;-56
2022/03/21 07:14:39;;;;;;;20.47;14.93;;;;;;;;;;5001120;28;20208;-56
2022/03/21 07:17:05;;;;;;;22.03;14.10;;;;;;;;;;5007335;28;20186;-56
2022/03/21 07:19:31;;;;;;;17.07;14.03;;;;;;;;;;5001406;28;21958;-55
2022/03/21 07:21:57;;;;;;;15.27;13.67;;;;;;;;;;5004530;28;20203;-56
2022/03/21 07:24:23;;;;;;;19.70;14.67;;;;;;;;;;4991774;28;20445;-56
2022/03/21 07:26:49;;;;;;;20.07;14.00;;;;;;;;;;5002213;28;20232;-56
2022/03/21 07:29:15;;;;;;;20.03;14.60;;;;;;;;;;5000543;28;20647;-56
2022/03/21 07:31:41;;;;;;;18.90;14.70;;;;;;;;;;5004841;28;20240;-56
2022/03/21 07:34:07;;;;;;;19.10;15.70;;;;;;;;;;5009137;28;20200;-56
2022/03/21 07:36:34;;;;;;;18.20;15.70;;;;;;;;;;5011409;28;20207;-56
2022/03/21 07:39:00;;;;;;;20.40;15.00;;;;;;;;;;5010247;28;20334;-55
2022/03/21 07:41:27;;;;;;;19.23;15.53;;;;;;;;;;5008874;28;20193;-56
2022/03/21 07:43:57;;;;;;;19.83;16.17;;;;;;;;;;5008007;28;20638;-56
2022/03/21 07:49:08;;;;;;;22.40;16.60;;;;;;;;;;5010600;28;20520;-56
2022/03/21 07:51:34;;;;;;;21.27;15.83;;;;;;;;;;5008836;28;20193;-56
2022/03/21 07:53:59;;;;;;;20.73;16.43;;;;;;;;;;5007594;28;20185;-56
2022/03/21 07:56:25;;;;;;;21.73;16.83;;;;;;;;;;5007067;28;20276;-56
2022/03/21 07:58:52;;;;;;;21.43;16.60;;;;;;;;;;5011418;28;20757;-55
2022/03/21 08:01:19;;;;;;;21.07;16.67;;;;;;;;;;5009262;28;20197;-56
2022/03/21 08:03:46;;;;;;;18.33;15.87;;;;;;;;;;5009003;28;20193;-56
2022/03/21 08:06:13;;;;;;;22.57;16.30;;;;;;;;;;5008051;28;20205;-56
2022/03/21 08:08:39;;;;;;;17.57;15.60;;;;;;;;;;5003007;28;20186;-55
2022/03/21 08:11:05;;;;;;;21.63;16.30;;;;;;;;;;5010522;28;20197;-56
2022/03/21 08:13:32;;;;;;;20.63;16.33;;;;;;;;;;5011645;28;20195;-56
2022/03/21 08:15:59;;;;;;;19.40;16.47;;;;;;;;;;5012606;28;20208;-56
2022/03/21 08:18:25;;;;;;;21.40;16.73;;;;;;;;;;5012387;28;20677;-56
2022/03/21 08:20:51;;;;;;;20.80;16.50;;;;;;;;;;5010157;28;20200;-56
2022/03/21 08:23:17;;;;;;;19.10;15.87;;;;;;;;;;5010455;28;20704;-55
2022/03/21 08:25:45;;;;;;;24.17;16.60;;;;;;;;;;5007588;28;20287;-56
2022/03/21 08:28:11;;;;;;;19.50;16.00;;;;;;;;;;5013034;28;20193;-56
2022/03/21 08:30:37;;;;;;;23.33;16.53;;;;;;;;;;5009280;28;20200;-56
2022/03/21 08:33:06;;;;;;;20.47;16.37;;;;;;;;;;5003570;28;20201;-56
2022/03/21 08:35:32;;;;;;;21.63;16.70;;;;;;;;;;5000548;28;21006;-56
2022/03/21 08:37:58;;;;;;;20.47;16.17;;;;;;;;;;5003649;28;20193;-56
2022/03/21 08:40:24;;;;;;;19.70;16.37;;;;;;;;;;5003300;28;20198;-55
2022/03/21 08:42:50;;;;;;;22.53;17.73;;;;;;;;;;5001003;28;20214;-55
2022/03/21 08:45:16;;;;;;;20.23;17.33;;;;;;;;;;5007830;28;20276;-55
2022/03/21 08:47:42;;;;;;;19.23;16.87;;;;;;;;;;5014447;28;20275;-56
2022/03/21 08:50:09;;;;;;;19.43;16.83;;;;;;;;;;5013929;28;20215;-56
2022/03/21 08:52:35;;;;;;;20.43;16.33;;;;;;;;;;5011511;28;20269;-56
2022/03/21 08:55:01;;;;;;;19.37;16.23;;;;;;;;;;5012486;28;20696;-56
2022/03/21 08:57:27;;;;;;;20.90;17.37;;;;;;;;;;5009400;28;20650;-56
2022/03/21 08:59:53;;;;;;;18.80;16.73;;;;;;;;;;5014004;28;20242;-56
2022/03/21 09:02:20;;;;;;;18.40;16.40;;;;;;;;;;5013510;28;20236;-56
2022/03/21 09:04:46;;;;;;;19.40;17.30;;;;;;;;;;4994474;28;20228;-55
2022/03/21 09:07:13;;;;;;;19.67;17.23;;;;;;;;;;5004107;28;20190;-55
2022/03/21 09:09:39;;;;;;;19.07;16.70;;;;;;;;;;5007184;28;20303;-56
2022/03/21 09:12:05;;;;;;;18.83;16.83;;;;;;;;;;5006513;28;20193;-56
2022/03/21 09:14:31;;;;;;;19.90;17.80;;;;;;;;;;5007068;28;20189;-56
2022/03/21 09:16:57;;;;;;;18.23;16.33;;;;;;;;;;5009036;28;20688;-56
2022/03/21 09:19:23;;;;;;;20.57;17.00;;;;;;;;;;5011965;28;20201;-55
2022/03/21 09:21:50;;;;;;;19.63;16.53;;;;;;;;;;5006482;28;20240;-55
2022/03/21 09:24:16;;;;;;;20.07;16.50;;;;;;;;;;5014661;28;20222;-56
2022/03/21 09:26:42;;;;;;;19.00;17.00;;;;;;;;;;5012753;28;20705;-55
2022/03/21 09:29:08;;;;;;;18.90;16.50;;;;;;;;;;5013924;28;20745;-56
2022/03/21 09:31:35;;;;;;;20.00;17.40;;;;;;;;;;5014500;28;20279;-56
2022/03/21 09:34:01;;;;;;;18.43;16.43;;;;;;;;;;5013310;28;20198;-56
2022/03/21 09:36:27;;;;;;;18.77;16.73;;;;;;;;;;5007084;28;20204;-56
2022/03/21 09:38:53;;;;;;;18.45;16.33;;;;;;;;;;5006178;28;20666;-56
2022/03/21 09:41:25;;;;;;;18.08;16.27;;;;;;;;;;5007144;28;20308;-56
2022/03/21 09:43:56;;;;;;;18.87;16.87;;;;;;;;;;5009629;28;20221;-56
2022/03/21 09:46:23;;;;;;;19.50;16.48;;;;;;;;;;5015225;28;20190;-55
2022/03/21 09:48:49;;;;;;;18.20;16.40;;;;;;;;;;5014958;28;20220;-56
2022/03/21 09:51:18;;;;;;;19.58;16.30;;;;;;;;;;5014253;28;20190;-56
2022/03/21 09:53:44;;;;;;;18.40;16.45;;;;;;;;;;5014575;28;20217;-56
2022/03/21 09:56:10;;;;;;;16.52;14.93;;;;;;;;;;5009197;28;20652;-56
2022/03/21 09:58:36;;;;;;;18.63;16.65;;;;;;;;;;5010408;28;20202;-56
2022/03/21 10:01:02;;;;;;;17.67;15.88;;;;;;;;;;5009398;28;20637;-56
2022/03/21 10:03:29;;;;;;;18.73;15.93;;;;;;;;;;5012340;28;20695;-56
2022/03/21 10:05:55;;;;;;;18.25;16.45;;;;;;;;;;5011675;28;20207;-56
2022/03/21 10:08:21;;;;;;;17.23;15.45;;;;;;;;;;5009647;28;20186;-56
2022/03/21 10:10:54;;;;;;;17.95;15.50;;;;;;;;;;5006488;28;20189;-56
2022/03/21 10:13:20;;;;;;;20.88;17.35;;;;;;;;;;5005141;28;20204;-55
2022/03/21 10:15:46;;;;;;;18.13;15.93;;;;;;;;;;5009298;28;20247;-56
2022/03/21 10:18:12;;;;;;;16.90;15.10;;;;;;;;;;5010007;28;20646;-56
2022/03/21 10:20:39;;;;;;;17.67;15.77;;;;;;;;;;5010096;28;20189;-56
2022/03/21 10:23:16;;;;;;;17.63;15.82;;;;;;;;;;5009866;28;20725;-56
2022/03/21 10:25:41;;;;;;;16.50;14.80;;;;;;;;;;5015075;28;20572;-56
2022/03/21 10:28:08;;;;;;;18.85;15.45;;;;;;;;;;4998562;28;20193;-56
2022/03/21 10:30:33;;;;;;;17.02;15.23;;;;;;;;;;5005806;28;21101;-57
2022/03/21 10:33:00;;;;;;;11.07;7.38;;;;;;;;;;5007860;28;20197;-56
2022/03/21 10:35:27;;;;;;;9.50;8.57;;;;;;;;;;5009323;28;20203;-56
2022/03/21 10:37:55;;;;;;;12.43;9.18;;;;;;;;;;5009031;28;20572;-56
2022/03/21 10:40:21;;;;;;;11.98;9.82;;;;;;;;;;5003229;28;20223;-57
2022/03/21 10:43:06;;;;;;;12.63;9.20;;;;;;;;;;5009316;28;20220;-56
2022/03/21 10:45:35;;;;;;;10.50;9.45;;;;;;;;;;5010105;28;20588;-56
2022/03/21 10:48:01;;;;;;;9.48;8.45;;;;;;;;;;5006476;28;20194;-57
2022/03/21 10:50:54;;;;;;;8.88;7.97;;;;;;;;;;5009931;28;20281;-56
2022/03/21 10:53:20;;;;;;;9.30;8.40;;;;;;;;;;5004405;28;20223;-56
2022/03/21 10:55:47;;;;;;;11.13;7.80;;;;;;;;;;5009011;28;20208;-55
2022/03/21 10:58:14;;;;;;;9.98;7.95;;;;;;;;;;5007586;28;20188;-56
2022/03/21 11:00:40;;;;;;;10.30;7.70;;;;;;;;;;5009842;28;20199;-56
2022/03/21 11:03:12;;;;;;;8.85;7.95;;;;;;;;;;5010164;28;20566;-56
2022/03/21 11:05:48;;;;;;;13.00;9.60;;;;;;;;;;5002955;28;20210;-56
2022/03/21 11:08:15;;;;;;;10.68;8.88;;;;;;;;;;4997592;28;20185;-56
2022/03/21 11:10:41;;;;;;;9.60;7.57;;;;;;;;;;5010433;28;20212;-56
2022/03/21 11:13:07;;;;;;;9.00;8.00;;;;;;;;;;5009125;28;20205;-56
2022/03/21 11:15:35;;;;;;;9.10;7.28;;;;;;;;;;5012539;28;20658;-56
2022/03/21 11:18:01;;;;;;;11.18;8.43;;;;;;;;;;5001864;28;20279;-55
2022/03/21 11:20:30;;;;;;;10.73;7.72;;;;;;;;;;5006845;28;20814;-56
2022/03/21 11:22:57;;;;;;;9.35;7.68;;;;;;;;;;5003385;28;20209;-56
2022/03/21 11:25:28;;;;;;;8.60;7.80;;;;;;;;;;4998599;28;20235;-56
2022/03/21 11:28:01;;;;;;;8.75;7.50;;;;;;;;;;5000872;28;20259;-56
2022/03/21 11:30:31;;;;;;;8.80;7.80;;;;;;;;;;5003243;28;20197;-56
2022/03/21 11:33:20;;;;;;;8.23;7.43;;;;;;;;;;4996972;28;20185;-56
2022/03/21 11:35:52;;;;;;;9.50;7.10;;;;;;;;;;5006335;28;20189;-56
2022/03/21 11:38:24;;;;;;;9.35;8.15;;;;;;;;;;5005088;28;20181;-56
2022/03/21 11:40:50;;;;;;;8.52;7.72;;;;;;;;;;4999120;28;20202;-56
2022/03/21 11:43:21;;;;;;;8.82;7.93;;;;;;;;;;5008748;28;20205;-56
2022/03/21 11:45:50;;;;;;;9.55;7.82;;;;;;;;;;5010815;28;20186;-56
2022/03/21 11:48:19;;;;;;;8.27;7.47;;;;;;;;;;5006776;28;20244;-56
2022/03/21 11:50:45;;;;;;;8.45;7.35;;;;;;;;;;5005439;28;20690;-56
2022/03/21 11:53:11;;;;;;;9.02;8.20;;;;;;;;;;5011183;28;20643;-56
2022/03/21 11:55:41;;;;;;;9.32;7.47;;;;;;;;;;5008361;28;21052;-56
2022/03/21 11:58:39;;;;;;;8.90;7.25;;;;;;;;;;5005804;28;20220;-56
2022/03/21 12:01:06;;;;;;;8.15;7.35;;;;;;;;;;5011713;28;20201;-56
2022/03/21 12:03:32;;;;;;;7.78;7.07;;;;;;;;;;5010785;28;20618;-56
2022/03/21 12:05:59;;;;;;;8.25;7.40;;;;;;;;;;5000777;28;20252;-57
2022/03/21 12:08:31;;;;;;;7.88;7.18;;;;;;;;;;5004177;28;20195;-54
2022/03/21 12:10:56;;;;;;;8.55;7.75;;;;;;;;;;5002273;28;20216;-56
2022/03/21 12:13:22;;;;;;;8.57;7.78;;;;;;;;;;4999508;28;20193;-57
2022/03/21 12:15:51;;;;;;;8.43;7.63;;;;;;;;;;5004160;28;20195;-56
2022/03/21 12:18:19;;;;;;;9.27;7.70;;;;;;;;;;5001307;28;20194;-56
2022/03/21 12:20:46;;;;;;;8.27;7.40;;;;;;;;;;5010321;28;20193;-56
2022/03/21 12:23:16;;;;;;;7.93;7.10;;;;;;;;;;5004595;28;20697;-56
2022/03/21 12:25:43;;;;;;;8.27;7.53;;;;;;;;;;5008757;28;20225;-56
2022/03/21 12:28:21;;;;;;;7.90;7.10;;;;;;;;;;5005638;28;20190;-56
2022/03/21 12:30:50;;;;;;;7.95;7.15;;;;;;;;;;4999440;28;20189;-56
2022/03/21 12:33:16;;;;;;;8.88;7.30;;;;;;;;;;5002534;28;20201;-56
2022/03/21 12:35:45;;;;;;;7.90;7.13;;;;;;;;;;5000838;28;20185;-56
2022/03/21 12:38:12;;;;;;;7.60;6.90;;;;;;;;;;5005818;28;20185;-56
2022/03/21 12:40:40;;;;;;;8.32;6.95;;;;;;;;;;5003821;28;20577;-56
2022/03/21 12:43:06;;;;;;;7.68;6.97;;;;;;;;;;5000002;28;20213;-56
2022/03/21 12:45:32;;;;;;;7.75;6.95;;;;;;;;;;5002063;28;20639;-56
2022/03/21 12:48:03;;;;;;;8.25;6.90;;;;;;;;;;5008830;28;20193;-56
2022/03/21 12:50:29;;;;;;;7.47;6.88;;;;;;;;;;5010537;28;20185;-56
2022/03/21 12:52:57;;;;;;;7.60;6.80;;;;;;;;;;5004369;28;20628;-56
2022/03/21 12:55:23;;;;;;;7.38;6.68;;;;;;;;;;5010004;28;20197;-56
2022/03/21 12:57:52;;;;;;;7.05;6.45;;;;;;;;;;5006826;28;20200;-56
2022/03/21 13:00:19;;;;;;;8.15;6.25;;;;;;;;;;5003522;28;20235;-56
2022/03/21 13:02:45;;;;;;;7.65;6.85;;;;;;;;;;5003809;28;20193;-56
2022/03/21 13:10:42;;;;;;;7.60;6.80;;;;;;;;;;5007468;28;20211;-59
2022/03/21 13:13:08;;;;;;;6.88;6.28;;;;;;;;;;5002646;28;20797;-59
2022/03/21 13:15:35;;;;;;;6.93;6.18;;;;;;;;;;5006713;28;20658;-62
2022/03/21 13:18:01;;;;;;;8.35;6.50;;;;;;;;;;5002615;28;20193;-60
2022/03/21 13:20:29;;;;;;;7.40;6.03;;;;;;;;;;5003145;28;20205;-60
2022/03/21 13:22:56;;;;;;;8.82;6.63;;;;;;;;;;5005816;28;20213;-59
2022/03/21 13:25:22;;;;;;;7.55;6.80;;;;;;;;;;5004147;28;20243;-56
2022/03/21 13:27:50;;;;;;;9.05;6.43;;;;;;;;;;5001319;28;20635;-57
2022/03/21 13:30:16;;;;;;;7.82;6.63;;;;;;;;;;5006461;28;20196;-57
2022/03/21 13:32:42;;;;;;;7.53;6.68;;;;;;;;;;5012033;28;20189;-57
2022/03/21 13:35:08;;;;;;;7.38;6.13;;;;;;;;;;5021457;28;20272;-57
2022/03/21 13:37:34;;;;;;;7.22;6.53;;;;;;;;;;5007684;28;20194;-57
2022/03/21 13:40:00;;;;;;;10.10;6.53;;;;;;;;;;5009952;28;20200;-57
2022/03/21 13:42:26;;;;;;;7.35;6.43;;;;;;;;;;5003996;28;20555;-58
2022/03/21 13:44:53;;;;;;;9.93;6.63;;;;;;;;;;5009200;28;20217;-57
2022/03/21 13:47:19;;;;;;;7.18;6.45;;;;;;;;;;5010344;28;20185;-57
2022/03/21 13:49:48;;;;;;;8.70;6.55;;;;;;;;;;5011655;28;20749;-58
2022/03/21 13:52:34;;;;;;;7.40;6.47;;;;;;;;;;5016242;28;20271;-57
2022/03/21 13:55:00;;;;;;;7.60;6.78;;;;;;;;;;5010341;28;20251;-58
2022/03/21 13:57:27;;;;;;;7.35;6.25;;;;;;;;;;5009858;28;20189;-57
2022/03/21 14:00:10;;;;;;;7.70;6.90;;;;;;;;;;5011375;28;20195;-58
2022/03/21 14:03:02;;;;;;;7.55;6.80;;;;;;;;;;5008683;28;20192;-58
2022/03/21 14:05:29;;;;;;;7.03;6.30;;;;;;;;;;5004715;28;20292;-58
2022/03/21 14:08:14;;;;;;;7.00;6.40;;;;;;;;;;5011578;28;20197;-58
2022/03/21 14:10:40;;;;;;;8.10;7.30;;;;;;;;;;5000454;28;20193;-58
2022/03/21 14:13:15;;;;;;;10.30;9.18;;;;;;;;;;5004852;28;20650;-59
2022/03/21 14:15:41;;;;;;;13.35;9.65;;;;;;;;;;5000145;28;20223;-59
2022/03/21 14:18:10;;;;;;;13.48;10.05;;;;;;;;;;4997155;28;20189;-59
2022/03/21 14:20:36;;;;;;;11.25;10.15;;;;;;;;;;5003219;28;20695;-59
2022/03/21 14:23:02;;;;;;;14.82;9.30;;;;;;;;;;4999540;28;20209;-59
2022/03/21 14:28:14;;;;;;;8.98;7.55;;;;;;;;;;5005266;28;20192;-56
2022/03/21 14:30:41;;;;;;;10.82;8.50;;;;;;;;;;5006459;28;20666;-54
2022/03/21 14:33:06;;;;;;;12.63;9.32;;;;;;;;;;5000629;28;20199;-56
2022/03/21 14:35:32;;;;;;;9.80;8.80;;;;;;;;;;4988268;28;20212;-56
2022/03/21 14:37:58;;;;;;;12.57;9.10;;;;;;;;;;4994288;28;20235;-57
2022/03/21 14:40:24;;;;;;;13.05;9.43;;;;;;;;;;4990674;28;20192;-59
2022/03/21 14:42:50;;;;;;;15.57;9.27;;;;;;;;;;5000397;28;20205;-56
2022/03/21 14:45:17;;;;;;;13.13;9.73;;;;;;;;;;5006103;28;20801;-57
2022/03/21 14:47:43;;;;;;;12.93;9.80;;;;;;;;;;5003888;28;20666;-57